sensor_id;sensor_type;location;lat;lon;timestamp;P1;durP1;ratioP1;P2;durP2;ratioP2
10963;SDS011;5534;48.784;9.190;2022-12-18T00:02:02;35.83;;;18.70;;
10963;SDS011;5534;48.784;9.190;2022-12-18T00:04:29;40.10;;;19.80;;
10963;SDS011;5534;48.784;9.190;2022-12-18T00:06:54;40.87;;;20.17;;
10963;SDS011;5534;48.784;9.190;2022-12-18T00:09:20;41.57;;;19.73;;
10963;SDS011;5534;48.784;9.190;2022-12-18T00:11:46;41.53;;;20.53;;
10963;SDS011;5534;48.784;9.190;2022-12-18T00:14:12;39.23;;;21.10;;
10963;SDS011;5534;48.784;9.190;2022-12-18T00:16:38;41.53;;;20.10;;
10963;SDS011;5534;48.784;9.190;2022-12-18T00:19:05;43.87;;;20.53;;
10963;SDS011;5534;48.784;9.190;2022-12-18T00:21:32;44.93;;;20.30;;
10963;SDS011;5534;48.784;9.190;2022-12-18T00:23:59;39.17;;;20.17;;
10963;SDS011;5534;48.784;9.190;2022-12-18T00:26:26;41.73;;;20.97;;
10963;SDS011;5534;48.784;9.190;2022-12-18T00:28:58;41.43;;;19.73;;
10963;SDS011;5534;48.784;9.190;2022-12-18T00:31:25;46.63;;;20.63;;
10963;SDS011;5534;48.784;9.190;2022-12-18T00:33:51;40.83;;;19.87;;
10963;SDS011;5534;48.784;9.190;2022-12-18T00:36:20;45.03;;;19.20;;
10963;SDS011;5534;48.784;9.190;2022-12-18T00:38:47;43.50;;;21.07;;
10963;SDS011;5534;48.784;9.190;2022-12-18T00:41:14;40.77;;;20.03;;
10963;SDS011;5534;48.784;9.190;2022-12-18T00:44:04;47.27;;;21.23;;
10963;SDS011;5534;48.784;9.190;2022-12-18T00:46:30;40.27;;;19.43;;
10963;SDS011;5534;48.784;9.190;2022-12-18T00:48:56;44.23;;;20.57;;
10963;SDS011;5534;48.784;9.190;2022-12-18T00:51:23;43.60;;;21.00;;
10963;SDS011;5534;48.784;9.190;2022-12-18T00:53:49;38.63;;;19.50;;
10963;SDS011;5534;48.784;9.190;2022-12-18T00:56:15;43.70;;;20.90;;
10963;SDS011;5534;48.784;9.190;2022-12-18T00:58:41;42.57;;;20.87;;
10963;SDS011;5534;48.784;9.190;2022-12-18T01:01:06;41.17;;;20.90;;
10963;SDS011;5534;48.784;9.190;2022-12-18T01:03:32;41.23;;;20.20;;
10963;SDS011;5534;48.784;9.190;2022-12-18T01:05:58;44.63;;;20.73;;
10963;SDS011;5534;48.784;9.190;2022-12-18T01:08:24;45.20;;;21.23;;
10963;SDS011;5534;48.784;9.190;2022-12-18T01:10:50;44.33;;;21.90;;
10963;SDS011;5534;48.784;9.190;2022-12-18T01:13:15;46.83;;;21.93;;
10963;SDS011;5534;48.784;9.190;2022-12-18T01:15:47;48.33;;;22.00;;
10963;SDS011;5534;48.784;9.190;2022-12-18T01:18:16;44.07;;;22.33;;
10963;SDS011;5534;48.784;9.190;2022-12-18T01:20:43;45.80;;;22.40;;
10963;SDS011;5534;48.784;9.190;2022-12-18T01:23:09;46.23;;;20.73;;
10963;SDS011;5534;48.784;9.190;2022-12-18T01:25:37;44.07;;;19.67;;
10963;SDS011;5534;48.784;9.190;2022-12-18T01:28:03;42.20;;;20.23;;
10963;SDS011;5534;48.784;9.190;2022-12-18T01:30:30;45.97;;;21.27;;
10963;SDS011;5534;48.784;9.190;2022-12-18T01:32:55;45.90;;;21.00;;
10963;SDS011;5534;48.784;9.190;2022-12-18T01:35:21;40.17;;;19.93;;
10963;SDS011;5534;48.784;9.190;2022-12-18T01:37:47;42.90;;;21.00;;
10963;SDS011;5534;48.784;9.190;2022-12-18T01:40:12;45.33;;;20.37;;
10963;SDS011;5534;48.784;9.190;2022-12-18T01:42:38;40.27;;;19.70;;
10963;SDS011;5534;48.784;9.190;2022-12-18T01:50:14;40.93;;;20.07;;
10963;SDS011;5534;48.784;9.190;2022-12-18T01:52:42;46.20;;;20.13;;
10963;SDS011;5534;48.784;9.190;2022-12-18T01:55:10;41.40;;;20.40;;
10963;SDS011;5534;48.784;9.190;2022-12-18T01:57:37;37.87;;;18.93;;
10963;SDS011;5534;48.784;9.190;2022-12-18T02:00:06;39.90;;;19.43;;
10963;SDS011;5534;48.784;9.190;2022-12-18T02:02:35;47.00;;;19.77;;
10963;SDS011;5534;48.784;9.190;2022-12-18T02:05:02;38.73;;;18.20;;
10963;SDS011;5534;48.784;9.190;2022-12-18T02:13:01;42.30;;;20.10;;
10963;SDS011;5534;48.784;9.190;2022-12-18T02:15:42;43.80;;;19.60;;
10963;SDS011;5534;48.784;9.190;2022-12-18T02:18:23;39.10;;;18.37;;
10963;SDS011;5534;48.784;9.190;2022-12-18T02:21:12;40.87;;;18.33;;
10963;SDS011;5534;48.784;9.190;2022-12-18T02:28:56;35.87;;;16.47;;
10963;SDS011;5534;48.784;9.190;2022-12-18T02:31:36;35.93;;;17.23;;
10963;SDS011;5534;48.784;9.190;2022-12-18T02:34:07;36.37;;;18.07;;
10963;SDS011;5534;48.784;9.190;2022-12-18T02:36:36;40.30;;;17.77;;
10963;SDS011;5534;48.784;9.190;2022-12-18T02:39:05;36.00;;;17.20;;
10963;SDS011;5534;48.784;9.190;2022-12-18T02:41:34;37.63;;;16.87;;
10963;SDS011;5534;48.784;9.190;2022-12-18T02:44:06;36.30;;;17.17;;
10963;SDS011;5534;48.784;9.190;2022-12-18T02:46:38;32.07;;;16.87;;
10963;SDS011;5534;48.784;9.190;2022-12-18T02:49:31;36.60;;;18.03;;
10963;SDS011;5534;48.784;9.190;2022-12-18T02:57:57;35.93;;;16.37;;
10963;SDS011;5534;48.784;9.190;2022-12-18T03:00:37;34.20;;;16.53;;
10963;SDS011;5534;48.784;9.190;2022-12-18T03:03:19;37.53;;;17.73;;
10963;SDS011;5534;48.784;9.190;2022-12-18T03:05:59;34.30;;;17.00;;
10963;SDS011;5534;48.784;9.190;2022-12-18T03:08:31;33.00;;;16.17;;
10963;SDS011;5534;48.784;9.190;2022-12-18T03:11:06;32.90;;;16.73;;
10963;SDS011;5534;48.784;9.190;2022-12-18T03:13:40;29.43;;;15.60;;
10963;SDS011;5534;48.784;9.190;2022-12-18T03:16:14;38.17;;;17.33;;
10963;SDS011;5534;48.784;9.190;2022-12-18T03:18:48;34.60;;;16.40;;
10963;SDS011;5534;48.784;9.190;2022-12-18T03:21:17;34.37;;;16.73;;
10963;SDS011;5534;48.784;9.190;2022-12-18T03:23:49;31.63;;;16.97;;
10963;SDS011;5534;48.784;9.190;2022-12-18T03:26:19;31.50;;;16.60;;
10963;SDS011;5534;48.784;9.190;2022-12-18T03:28:52;38.53;;;17.13;;
10963;SDS011;5534;48.784;9.190;2022-12-18T03:31:22;35.80;;;16.83;;
10963;SDS011;5534;48.784;9.190;2022-12-18T03:33:53;34.37;;;17.00;;
10963;SDS011;5534;48.784;9.190;2022-12-18T03:36:20;35.77;;;16.77;;
10963;SDS011;5534;48.784;9.190;2022-12-18T03:38:46;39.93;;;18.13;;
10963;SDS011;5534;48.784;9.190;2022-12-18T03:44:08;33.67;;;17.50;;
10963;SDS011;5534;48.784;9.190;2022-12-18T03:46:47;34.73;;;17.00;;
10963;SDS011;5534;48.784;9.190;2022-12-18T03:49:27;36.20;;;17.87;;
10963;SDS011;5534;48.784;9.190;2022-12-18T03:54:51;33.57;;;16.10;;
10963;SDS011;5534;48.784;9.190;2022-12-18T03:57:20;31.90;;;15.90;;
10963;SDS011;5534;48.784;9.190;2022-12-18T03:59:49;34.03;;;16.67;;
10963;SDS011;5534;48.784;9.190;2022-12-18T04:02:19;34.27;;;16.00;;
10963;SDS011;5534;48.784;9.190;2022-12-18T04:04:47;28.67;;;15.27;;
10963;SDS011;5534;48.784;9.190;2022-12-18T04:07:16;24.37;;;12.83;;
10963;SDS011;5534;48.784;9.190;2022-12-18T04:09:42;28.10;;;13.87;;
10963;SDS011;5534;48.784;9.190;2022-12-18T04:12:10;27.50;;;14.00;;
10963;SDS011;5534;48.784;9.190;2022-12-18T04:14:36;26.97;;;14.03;;
10963;SDS011;5534;48.784;9.190;2022-12-18T04:17:02;28.87;;;13.50;;
10963;SDS011;5534;48.784;9.190;2022-12-18T04:19:28;25.83;;;13.73;;
10963;SDS011;5534;48.784;9.190;2022-12-18T04:21:54;23.43;;;12.87;;
10963;SDS011;5534;48.784;9.190;2022-12-18T04:24:20;24.87;;;13.10;;
10963;SDS011;5534;48.784;9.190;2022-12-18T04:26:46;28.43;;;13.93;;
10963;SDS011;5534;48.784;9.190;2022-12-18T04:29:11;29.77;;;14.40;;
10963;SDS011;5534;48.784;9.190;2022-12-18T04:31:37;26.00;;;13.13;;
10963;SDS011;5534;48.784;9.190;2022-12-18T04:34:03;26.77;;;13.07;;
10963;SDS011;5534;48.784;9.190;2022-12-18T04:36:29;24.50;;;13.40;;
10963;SDS011;5534;48.784;9.190;2022-12-18T04:38:55;26.73;;;13.67;;
10963;SDS011;5534;48.784;9.190;2022-12-18T04:41:20;25.17;;;13.07;;
10963;SDS011;5534;48.784;9.190;2022-12-18T04:43:46;28.57;;;13.67;;
10963;SDS011;5534;48.784;9.190;2022-12-18T04:46:12;24.27;;;13.10;;
10963;SDS011;5534;48.784;9.190;2022-12-18T04:48:38;26.10;;;12.60;;
10963;SDS011;5534;48.784;9.190;2022-12-18T04:51:04;25.57;;;12.63;;
10963;SDS011;5534;48.784;9.190;2022-12-18T04:53:31;27.07;;;13.97;;
10963;SDS011;5534;48.784;9.190;2022-12-18T04:56:07;27.53;;;14.00;;
10963;SDS011;5534;48.784;9.190;2022-12-18T04:58:35;24.23;;;13.37;;
10963;SDS011;5534;48.784;9.190;2022-12-18T05:01:01;30.00;;;14.67;;
10963;SDS011;5534;48.784;9.190;2022-12-18T05:03:27;24.57;;;12.23;;
10963;SDS011;5534;48.784;9.190;2022-12-18T05:05:53;26.40;;;13.20;;
10963;SDS011;5534;48.784;9.190;2022-12-18T05:08:18;23.13;;;13.10;;
10963;SDS011;5534;48.784;9.190;2022-12-18T05:10:44;24.07;;;12.80;;
10963;SDS011;5534;48.784;9.190;2022-12-18T05:13:10;23.73;;;12.53;;
10963;SDS011;5534;48.784;9.190;2022-12-18T05:15:36;24.37;;;12.47;;
10963;SDS011;5534;48.784;9.190;2022-12-18T05:18:01;27.40;;;13.20;;
10963;SDS011;5534;48.784;9.190;2022-12-18T05:20:28;23.50;;;12.07;;
10963;SDS011;5534;48.784;9.190;2022-12-18T05:22:54;21.70;;;11.67;;
10963;SDS011;5534;48.784;9.190;2022-12-18T05:25:21;24.93;;;12.23;;
10963;SDS011;5534;48.784;9.190;2022-12-18T05:27:47;22.67;;;12.70;;
10963;SDS011;5534;48.784;9.190;2022-12-18T05:30:13;27.10;;;13.40;;
10963;SDS011;5534;48.784;9.190;2022-12-18T05:32:40;25.30;;;13.23;;
10963;SDS011;5534;48.784;9.190;2022-12-18T05:35:07;30.33;;;14.53;;
10963;SDS011;5534;48.784;9.190;2022-12-18T05:37:34;24.20;;;12.70;;
10963;SDS011;5534;48.784;9.190;2022-12-18T05:40:00;27.27;;;13.80;;
10963;SDS011;5534;48.784;9.190;2022-12-18T05:42:27;24.00;;;13.20;;
10963;SDS011;5534;48.784;9.190;2022-12-18T05:44:52;26.63;;;13.70;;
10963;SDS011;5534;48.784;9.190;2022-12-18T05:47:18;22.63;;;11.77;;
10963;SDS011;5534;48.784;9.190;2022-12-18T05:49:44;25.77;;;12.80;;
10963;SDS011;5534;48.784;9.190;2022-12-18T05:52:10;25.70;;;12.67;;
10963;SDS011;5534;48.784;9.190;2022-12-18T05:54:36;23.33;;;12.60;;
10963;SDS011;5534;48.784;9.190;2022-12-18T05:57:01;23.63;;;12.87;;
10963;SDS011;5534;48.784;9.190;2022-12-18T05:59:30;28.93;;;14.10;;
10963;SDS011;5534;48.784;9.190;2022-12-18T06:01:56;27.20;;;13.43;;
10963;SDS011;5534;48.784;9.190;2022-12-18T06:04:22;26.17;;;12.90;;
10963;SDS011;5534;48.784;9.190;2022-12-18T06:06:47;24.17;;;13.17;;
10963;SDS011;5534;48.784;9.190;2022-12-18T06:09:13;26.97;;;13.37;;
10963;SDS011;5534;48.784;9.190;2022-12-18T06:11:39;27.17;;;13.77;;
10963;SDS011;5534;48.784;9.190;2022-12-18T06:14:05;24.37;;;12.70;;
10963;SDS011;5534;48.784;9.190;2022-12-18T06:16:31;21.83;;;12.90;;
10963;SDS011;5534;48.784;9.190;2022-12-18T06:18:57;25.43;;;14.10;;
10963;SDS011;5534;48.784;9.190;2022-12-18T06:21:24;26.93;;;13.97;;
10963;SDS011;5534;48.784;9.190;2022-12-18T06:23:50;24.93;;;13.50;;
10963;SDS011;5534;48.784;9.190;2022-12-18T06:26:15;26.23;;;13.53;;
10963;SDS011;5534;48.784;9.190;2022-12-18T06:28:41;27.73;;;13.00;;
10963;SDS011;5534;48.784;9.190;2022-12-18T06:31:07;25.13;;;13.10;;
10963;SDS011;5534;48.784;9.190;2022-12-18T06:33:34;24.77;;;13.73;;
10963;SDS011;5534;48.784;9.190;2022-12-18T06:36:01;28.00;;;13.50;;
10963;SDS011;5534;48.784;9.190;2022-12-18T06:38:33;26.17;;;13.80;;
10963;SDS011;5534;48.784;9.190;2022-12-18T06:40:59;25.83;;;13.60;;
10963;SDS011;5534;48.784;9.190;2022-12-18T06:43:25;25.67;;;13.50;;
10963;SDS011;5534;48.784;9.190;2022-12-18T06:45:51;26.57;;;13.47;;
10963;SDS011;5534;48.784;9.190;2022-12-18T06:48:25;26.30;;;13.07;;
10963;SDS011;5534;48.784;9.190;2022-12-18T06:50:50;26.80;;;13.63;;
10963;SDS011;5534;48.784;9.190;2022-12-18T06:53:16;24.83;;;12.70;;
10963;SDS011;5534;48.784;9.190;2022-12-18T06:55:42;27.63;;;13.70;;
10963;SDS011;5534;48.784;9.190;2022-12-18T06:58:08;27.50;;;13.00;;
10963;SDS011;5534;48.784;9.190;2022-12-18T07:00:33;27.97;;;13.53;;
10963;SDS011;5534;48.784;9.190;2022-12-18T07:02:59;26.80;;;13.47;;
10963;SDS011;5534;48.784;9.190;2022-12-18T07:05:25;28.67;;;12.90;;
10963;SDS011;5534;48.784;9.190;2022-12-18T07:07:51;25.03;;;13.10;;
10963;SDS011;5534;48.784;9.190;2022-12-18T07:10:17;24.73;;;13.60;;
10963;SDS011;5534;48.784;9.190;2022-12-18T07:12:43;25.17;;;12.47;;
10963;SDS011;5534;48.784;9.190;2022-12-18T07:15:09;24.37;;;12.23;;
10963;SDS011;5534;48.784;9.190;2022-12-18T07:17:35;26.27;;;13.03;;
10963;SDS011;5534;48.784;9.190;2022-12-18T07:20:01;28.03;;;13.57;;
10963;SDS011;5534;48.784;9.190;2022-12-18T07:22:28;28.20;;;13.70;;
10963;SDS011;5534;48.784;9.190;2022-12-18T07:24:54;28.57;;;13.07;;
10963;SDS011;5534;48.784;9.190;2022-12-18T07:27:20;25.73;;;13.13;;
10963;SDS011;5534;48.784;9.190;2022-12-18T07:29:46;25.93;;;13.00;;
10963;SDS011;5534;48.784;9.190;2022-12-18T07:32:12;28.43;;;12.90;;
10963;SDS011;5534;48.784;9.190;2022-12-18T07:34:38;25.87;;;12.93;;
10963;SDS011;5534;48.784;9.190;2022-12-18T07:37:04;25.90;;;12.80;;
10963;SDS011;5534;48.784;9.190;2022-12-18T07:39:30;25.40;;;13.17;;
10963;SDS011;5534;48.784;9.190;2022-12-18T07:41:55;26.17;;;12.67;;
10963;SDS011;5534;48.784;9.190;2022-12-18T07:44:40;26.40;;;12.93;;
10963;SDS011;5534;48.784;9.190;2022-12-18T07:47:05;24.33;;;12.73;;
10963;SDS011;5534;48.784;9.190;2022-12-18T07:49:32;29.50;;;14.53;;
10963;SDS011;5534;48.784;9.190;2022-12-18T07:51:58;26.13;;;13.17;;
10963;SDS011;5534;48.784;9.190;2022-12-18T07:54:24;29.20;;;12.80;;
10963;SDS011;5534;48.784;9.190;2022-12-18T07:56:50;25.20;;;12.33;;
10963;SDS011;5534;48.784;9.190;2022-12-18T07:59:17;30.00;;;14.03;;
10963;SDS011;5534;48.784;9.190;2022-12-18T08:01:43;26.17;;;14.40;;
10963;SDS011;5534;48.784;9.190;2022-12-18T08:04:09;29.67;;;13.60;;
10963;SDS011;5534;48.784;9.190;2022-12-18T08:06:34;27.63;;;15.03;;
10963;SDS011;5534;48.784;9.190;2022-12-18T08:09:00;25.93;;;13.27;;
10963;SDS011;5534;48.784;9.190;2022-12-18T08:11:26;24.77;;;13.80;;
10963;SDS011;5534;48.784;9.190;2022-12-18T08:13:53;27.53;;;14.13;;
10963;SDS011;5534;48.784;9.190;2022-12-18T08:16:20;27.13;;;13.87;;
10963;SDS011;5534;48.784;9.190;2022-12-18T08:18:46;32.30;;;14.80;;
10963;SDS011;5534;48.784;9.190;2022-12-18T08:21:17;29.43;;;13.57;;
10963;SDS011;5534;48.784;9.190;2022-12-18T08:23:46;24.70;;;13.40;;
10963;SDS011;5534;48.784;9.190;2022-12-18T08:26:12;26.53;;;13.17;;
10963;SDS011;5534;48.784;9.190;2022-12-18T08:28:39;29.47;;;14.40;;
10963;SDS011;5534;48.784;9.190;2022-12-18T08:31:05;29.33;;;14.23;;
10963;SDS011;5534;48.784;9.190;2022-12-18T08:33:31;28.77;;;14.20;;
10963;SDS011;5534;48.784;9.190;2022-12-18T08:35:59;52.83;;;22.80;;
10963;SDS011;5534;48.784;9.190;2022-12-18T08:38:25;31.47;;;14.37;;
10963;SDS011;5534;48.784;9.190;2022-12-18T08:40:58;26.13;;;13.90;;
10963;SDS011;5534;48.784;9.190;2022-12-18T08:43:25;29.07;;;14.37;;
10963;SDS011;5534;48.784;9.190;2022-12-18T08:46:10;31.80;;;14.57;;
10963;SDS011;5534;48.784;9.190;2022-12-18T08:48:36;33.83;;;15.17;;
10963;SDS011;5534;48.784;9.190;2022-12-18T08:51:03;28.33;;;14.17;;
10963;SDS011;5534;48.784;9.190;2022-12-18T08:53:29;28.50;;;14.50;;
10963;SDS011;5534;48.784;9.190;2022-12-18T08:55:56;30.27;;;15.60;;
10963;SDS011;5534;48.784;9.190;2022-12-18T08:58:21;31.37;;;15.03;;
10963;SDS011;5534;48.784;9.190;2022-12-18T09:00:47;33.47;;;16.03;;
10963;SDS011;5534;48.784;9.190;2022-12-18T09:03:14;29.37;;;14.27;;
10963;SDS011;5534;48.784;9.190;2022-12-18T09:05:45;33.87;;;15.13;;
10963;SDS011;5534;48.784;9.190;2022-12-18T09:08:12;31.07;;;14.60;;
10963;SDS011;5534;48.784;9.190;2022-12-18T09:10:42;31.97;;;14.53;;
10963;SDS011;5534;48.784;9.190;2022-12-18T09:13:09;33.53;;;15.00;;
10963;SDS011;5534;48.784;9.190;2022-12-18T09:15:40;33.50;;;15.77;;
10963;SDS011;5534;48.784;9.190;2022-12-18T09:18:06;26.37;;;14.97;;
10963;SDS011;5534;48.784;9.190;2022-12-18T09:20:32;32.07;;;15.97;;
10963;SDS011;5534;48.784;9.190;2022-12-18T09:22:58;28.17;;;15.53;;
10963;SDS011;5534;48.784;9.190;2022-12-18T09:25:24;29.33;;;14.27;;
10963;SDS011;5534;48.784;9.190;2022-12-18T09:27:49;32.13;;;15.30;;
10963;SDS011;5534;48.784;9.190;2022-12-18T09:30:15;29.40;;;15.03;;
10963;SDS011;5534;48.784;9.190;2022-12-18T09:32:41;28.20;;;14.47;;
10963;SDS011;5534;48.784;9.190;2022-12-18T09:35:07;33.83;;;15.53;;
10963;SDS011;5534;48.784;9.190;2022-12-18T09:37:33;26.63;;;14.17;;
10963;SDS011;5534;48.784;9.190;2022-12-18T09:39:58;30.17;;;15.63;;
10963;SDS011;5534;48.784;9.190;2022-12-18T09:42:24;30.40;;;14.83;;
10963;SDS011;5534;48.784;9.190;2022-12-18T09:44:51;35.27;;;15.47;;
10963;SDS011;5534;48.784;9.190;2022-12-18T09:47:23;29.97;;;16.10;;
10963;SDS011;5534;48.784;9.190;2022-12-18T09:49:56;28.60;;;15.27;;
10963;SDS011;5534;48.784;9.190;2022-12-18T09:52:27;28.83;;;15.23;;
10963;SDS011;5534;48.784;9.190;2022-12-18T09:58:00;30.70;;;15.03;;
10963;SDS011;5534;48.784;9.190;2022-12-18T10:00:35;31.70;;;15.60;;
10963;SDS011;5534;48.784;9.190;2022-12-18T10:03:11;32.63;;;15.13;;
10963;SDS011;5534;48.784;9.190;2022-12-18T10:14:08;32.57;;;16.87;;
10963;SDS011;5534;48.784;9.190;2022-12-18T10:24:44;30.17;;;16.23;;
10963;SDS011;5534;48.784;9.190;2022-12-18T10:27:21;33.10;;;15.73;;
10963;SDS011;5534;48.784;9.190;2022-12-18T10:29:50;36.80;;;18.00;;
10963;SDS011;5534;48.784;9.190;2022-12-18T10:32:18;31.17;;;16.67;;
10963;SDS011;5534;48.784;9.190;2022-12-18T10:34:50;30.90;;;17.23;;
10963;SDS011;5534;48.784;9.190;2022-12-18T10:37:19;27.67;;;15.13;;
10963;SDS011;5534;48.784;9.190;2022-12-18T10:40:04;33.07;;;16.03;;
10963;SDS011;5534;48.784;9.190;2022-12-18T10:42:40;34.93;;;16.40;;
10963;SDS011;5534;48.784;9.190;2022-12-18T10:45:16;38.17;;;17.00;;
10963;SDS011;5534;48.784;9.190;2022-12-18T10:47:47;32.97;;;16.77;;
10963;SDS011;5534;48.784;9.190;2022-12-18T10:53:13;35.23;;;17.50;;
10963;SDS011;5534;48.784;9.190;2022-12-18T10:55:47;33.10;;;17.00;;
10963;SDS011;5534;48.784;9.190;2022-12-18T11:03:37;30.93;;;17.43;;
10963;SDS011;5534;48.784;9.190;2022-12-18T11:06:24;35.00;;;16.47;;
10963;SDS011;5534;48.784;9.190;2022-12-18T11:08:57;32.60;;;16.03;;
10963;SDS011;5534;48.784;9.190;2022-12-18T11:11:28;30.87;;;16.43;;
10963;SDS011;5534;48.784;9.190;2022-12-18T11:14:04;31.47;;;16.10;;
10963;SDS011;5534;48.784;9.190;2022-12-18T11:16:43;28.77;;;16.17;;
10963;SDS011;5534;48.784;9.190;2022-12-18T11:21:51;32.70;;;15.00;;
10963;SDS011;5534;48.784;9.190;2022-12-18T11:24:22;32.50;;;15.63;;
10963;SDS011;5534;48.784;9.190;2022-12-18T11:27:01;29.60;;;14.93;;
10963;SDS011;5534;48.784;9.190;2022-12-18T11:29:31;28.60;;;14.13;;
10963;SDS011;5534;48.784;9.190;2022-12-18T11:35:16;29.93;;;13.77;;
10963;SDS011;5534;48.784;9.190;2022-12-18T11:38:02;26.10;;;13.70;;
10963;SDS011;5534;48.784;9.190;2022-12-18T11:40:42;28.37;;;14.63;;
10963;SDS011;5534;48.784;9.190;2022-12-18T11:45:42;25.30;;;12.43;;
10963;SDS011;5534;48.784;9.190;2022-12-18T11:48:16;25.97;;;12.20;;
10963;SDS011;5534;48.784;9.190;2022-12-18T11:50:52;26.40;;;12.37;;
10963;SDS011;5534;48.784;9.190;2022-12-18T11:53:21;22.67;;;11.57;;
10963;SDS011;5534;48.784;9.190;2022-12-18T11:58:47;25.43;;;12.10;;
10963;SDS011;5534;48.784;9.190;2022-12-18T12:01:46;27.37;;;12.80;;
10963;SDS011;5534;48.784;9.190;2022-12-18T12:29:17;22.83;;;12.53;;
10963;SDS011;5534;48.784;9.190;2022-12-18T12:37:33;25.97;;;12.20;;
10963;SDS011;5534;48.784;9.190;2022-12-18T12:40:03;23.60;;;12.33;;
10963;SDS011;5534;48.784;9.190;2022-12-18T12:42:34;25.13;;;12.47;;
10963;SDS011;5534;48.784;9.190;2022-12-18T12:45:29;25.13;;;12.23;;
10963;SDS011;5534;48.784;9.190;2022-12-18T12:48:04;25.97;;;12.63;;
10963;SDS011;5534;48.784;9.190;2022-12-18T12:50:39;25.97;;;11.70;;
10963;SDS011;5534;48.784;9.190;2022-12-18T12:53:07;26.73;;;12.73;;
10963;SDS011;5534;48.784;9.190;2022-12-18T12:55:39;30.80;;;13.90;;
10963;SDS011;5534;48.784;9.190;2022-12-18T12:58:08;28.00;;;12.97;;
10963;SDS011;5534;48.784;9.190;2022-12-18T13:05:54;26.40;;;11.73;;
10963;SDS011;5534;48.784;9.190;2022-12-18T13:08:26;24.40;;;12.20;;
10963;SDS011;5534;48.784;9.190;2022-12-18T13:10:58;25.13;;;13.77;;
10963;SDS011;5534;48.784;9.190;2022-12-18T13:13:55;26.37;;;12.77;;
10963;SDS011;5534;48.784;9.190;2022-12-18T13:16:24;26.57;;;13.00;;
10963;SDS011;5534;48.784;9.190;2022-12-18T13:18:52;29.73;;;13.20;;
10963;SDS011;5534;48.784;9.190;2022-12-18T13:21:26;21.87;;;11.63;;
10963;SDS011;5534;48.784;9.190;2022-12-18T13:23:54;23.97;;;12.53;;
10963;SDS011;5534;48.784;9.190;2022-12-18T13:26:38;24.33;;;12.90;;
10963;SDS011;5534;48.784;9.190;2022-12-18T13:29:04;26.47;;;13.17;;
10963;SDS011;5534;48.784;9.190;2022-12-18T13:36:38;32.35;;;18.10;;
10963;SDS011;5534;48.784;9.190;2022-12-18T13:41:48;28.67;;;14.17;;
10963;SDS011;5534;48.784;9.190;2022-12-18T13:44:55;25.97;;;12.93;;
10963;SDS011;5534;48.784;9.190;2022-12-18T13:47:33;26.33;;;13.47;;
10963;SDS011;5534;48.784;9.190;2022-12-18T13:50:09;29.53;;;14.77;;
10963;SDS011;5534;48.784;9.190;2022-12-18T13:52:49;29.47;;;15.03;;
10963;SDS011;5534;48.784;9.190;2022-12-18T13:55:18;28.93;;;13.80;;
10963;SDS011;5534;48.784;9.190;2022-12-18T13:57:45;27.37;;;13.53;;
10963;SDS011;5534;48.784;9.190;2022-12-18T14:00:28;33.60;;;14.17;;
10963;SDS011;5534;48.784;9.190;2022-12-18T14:02:56;29.03;;;14.40;;
10963;SDS011;5534;48.784;9.190;2022-12-18T14:05:23;29.53;;;13.80;;
10963;SDS011;5534;48.784;9.190;2022-12-18T14:07:55;28.40;;;13.73;;
10963;SDS011;5534;48.784;9.190;2022-12-18T14:10:31;28.17;;;14.00;;
10963;SDS011;5534;48.784;9.190;2022-12-18T14:12:58;28.97;;;14.47;;
10963;SDS011;5534;48.784;9.190;2022-12-18T14:15:43;26.73;;;14.53;;
10963;SDS011;5534;48.784;9.190;2022-12-18T14:18:24;31.77;;;14.90;;
10963;SDS011;5534;48.784;9.190;2022-12-18T14:20:54;25.33;;;14.17;;
10963;SDS011;5534;48.784;9.190;2022-12-18T14:25:51;26.43;;;14.97;;
10963;SDS011;5534;48.784;9.190;2022-12-18T14:28:18;26.63;;;14.13;;
10963;SDS011;5534;48.784;9.190;2022-12-18T14:30:44;32.43;;;15.00;;
10963;SDS011;5534;48.784;9.190;2022-12-18T14:33:12;33.60;;;15.17;;
10963;SDS011;5534;48.784;9.190;2022-12-18T14:35:51;33.73;;;16.53;;
10963;SDS011;5534;48.784;9.190;2022-12-18T14:38:23;31.07;;;15.00;;
10963;SDS011;5534;48.784;9.190;2022-12-18T14:41:04;30.07;;;14.70;;
10963;SDS011;5534;48.784;9.190;2022-12-18T14:43:33;29.50;;;14.47;;
10963;SDS011;5534;48.784;9.190;2022-12-18T14:46:01;30.67;;;14.93;;
10963;SDS011;5534;48.784;9.190;2022-12-18T14:48:39;31.20;;;15.53;;
10963;SDS011;5534;48.784;9.190;2022-12-18T14:51:19;33.87;;;16.03;;
10963;SDS011;5534;48.784;9.190;2022-12-18T14:53:49;31.67;;;15.67;;
10963;SDS011;5534;48.784;9.190;2022-12-18T14:59:00;33.00;;;15.07;;
10963;SDS011;5534;48.784;9.190;2022-12-18T15:03:57;32.53;;;16.00;;
10963;SDS011;5534;48.784;9.190;2022-12-18T15:09:00;32.83;;;16.30;;
10963;SDS011;5534;48.784;9.190;2022-12-18T15:16:58;36.57;;;16.60;;
10963;SDS011;5534;48.784;9.190;2022-12-18T15:19:31;32.23;;;16.10;;
10963;SDS011;5534;48.784;9.190;2022-12-18T15:22:04;27.37;;;15.33;;
10963;SDS011;5534;48.784;9.190;2022-12-18T15:24:39;29.67;;;15.00;;
10963;SDS011;5534;48.784;9.190;2022-12-18T15:27:05;31.93;;;14.63;;
10963;SDS011;5534;48.784;9.190;2022-12-18T15:30:15;29.37;;;14.47;;
10963;SDS011;5534;48.784;9.190;2022-12-18T15:32:43;31.47;;;15.87;;
10963;SDS011;5534;48.784;9.190;2022-12-18T15:35:23;30.27;;;15.10;;
10963;SDS011;5534;48.784;9.190;2022-12-18T15:37:50;28.03;;;14.67;;
10963;SDS011;5534;48.784;9.190;2022-12-18T15:40:18;29.90;;;15.07;;
10963;SDS011;5534;48.784;9.190;2022-12-18T15:42:45;33.13;;;15.73;;
10963;SDS011;5534;48.784;9.190;2022-12-18T15:45:32;35.67;;;16.67;;
10963;SDS011;5534;48.784;9.190;2022-12-18T15:47:58;31.47;;;15.90;;
10963;SDS011;5534;48.784;9.190;2022-12-18T15:50:25;37.80;;;16.50;;
10963;SDS011;5534;48.784;9.190;2022-12-18T15:52:51;32.07;;;15.30;;
10963;SDS011;5534;48.784;9.190;2022-12-18T15:55:20;30.37;;;15.10;;
10963;SDS011;5534;48.784;9.190;2022-12-18T15:58:06;31.27;;;14.47;;
10963;SDS011;5534;48.784;9.190;2022-12-18T16:00:33;32.47;;;15.50;;
10963;SDS011;5534;48.784;9.190;2022-12-18T16:03:00;36.17;;;15.77;;
10963;SDS011;5534;48.784;9.190;2022-12-18T16:05:26;30.87;;;14.67;;
10963;SDS011;5534;48.784;9.190;2022-12-18T16:07:54;30.33;;;15.27;;
10963;SDS011;5534;48.784;9.190;2022-12-18T16:10:20;32.47;;;16.27;;
10963;SDS011;5534;48.784;9.190;2022-12-18T16:12:46;32.40;;;14.83;;
10963;SDS011;5534;48.784;9.190;2022-12-18T16:15:13;33.67;;;15.40;;
10963;SDS011;5534;48.784;9.190;2022-12-18T16:17:42;28.47;;;14.07;;
10963;SDS011;5534;48.784;9.190;2022-12-18T16:20:18;31.70;;;15.07;;
10963;SDS011;5534;48.784;9.190;2022-12-18T16:22:47;34.37;;;15.70;;
10963;SDS011;5534;48.784;9.190;2022-12-18T16:25:16;32.53;;;16.93;;
10963;SDS011;5534;48.784;9.190;2022-12-18T16:27:42;37.83;;;15.63;;
10963;SDS011;5534;48.784;9.190;2022-12-18T16:30:12;34.03;;;16.47;;
10963;SDS011;5534;48.784;9.190;2022-12-18T16:32:39;34.80;;;16.30;;
10963;SDS011;5534;48.784;9.190;2022-12-18T16:35:05;33.60;;;16.20;;
10963;SDS011;5534;48.784;9.190;2022-12-18T16:37:35;35.43;;;15.93;;
10963;SDS011;5534;48.784;9.190;2022-12-18T16:40:00;36.53;;;17.33;;
10963;SDS011;5534;48.784;9.190;2022-12-18T16:42:26;30.20;;;15.40;;
10963;SDS011;5534;48.784;9.190;2022-12-18T16:44:52;32.07;;;16.07;;
10963;SDS011;5534;48.784;9.190;2022-12-18T16:47:20;33.60;;;17.43;;
10963;SDS011;5534;48.784;9.190;2022-12-18T16:49:46;36.67;;;16.20;;
10963;SDS011;5534;48.784;9.190;2022-12-18T16:52:15;31.43;;;15.27;;
10963;SDS011;5534;48.784;9.190;2022-12-18T16:54:41;30.30;;;15.00;;